sensor_id;sensor_type;location;lat;lon;timestamp;temperature;humidity
5779;DHT22;2916;49.798;10.022;2022-07-22T00:01:53;19.80;55.40
5779;DHT22;2916;49.798;10.022;2022-07-22T00:04:20;19.80;66.00
5779;DHT22;2916;49.798;10.022;2022-07-22T00:06:48;19.70;55.10
5779;DHT22;2916;49.798;10.022;2022-07-22T00:09:15;19.60;52.00
5779;DHT22;2916;49.798;10.022;2022-07-22T00:11:42;19.60;52.80
5779;DHT22;2916;49.798;10.022;2022-07-22T00:14:09;19.60;61.00
5779;DHT22;2916;49.798;10.022;2022-07-22T00:16:38;19.50;66.10
5779;DHT22;2916;49.798;10.022;2022-07-22T00:19:07;19.50;65.30
5779;DHT22;2916;49.798;10.022;2022-07-22T00:21:34;19.50;90.60
5779;DHT22;2916;49.798;10.022;2022-07-22T00:24:03;19.50;98.20
5779;DHT22;2916;49.798;10.022;2022-07-22T00:26:31;19.50;99.90
5779;DHT22;2916;49.798;10.022;2022-07-22T00:28:58;19.50;99.90
5779;DHT22;2916;49.798;10.022;2022-07-22T00:31:25;19.50;97.90
5779;DHT22;2916;49.798;10.022;2022-07-22T00:33:52;19.50;99.90
5779;DHT22;2916;49.798;10.022;2022-07-22T00:36:21;19.50;99.90
5779;DHT22;2916;49.798;10.022;2022-07-22T00:38:48;19.50;99.90
5779;DHT22;2916;49.798;10.022;2022-07-22T00:41:15;19.50;99.90
5779;DHT22;2916;49.798;10.022;2022-07-22T00:43:50;19.40;99.90
5779;DHT22;2916;49.798;10.022;2022-07-22T00:46:18;19.40;99.90
5779;DHT22;2916;49.798;10.022;2022-07-22T00:48:46;19.40;99.90
5779;DHT22;2916;49.798;10.022;2022-07-22T00:51:13;19.40;99.90
5779;DHT22;2916;49.798;10.022;2022-07-22T00:53:42;19.40;99.90
5779;DHT22;2916;49.798;10.022;2022-07-22T00:56:10;19.20;99.90
5779;DHT22;2916;49.798;10.022;2022-07-22T00:58:37;19.20;99.90
5779;DHT22;2916;49.798;10.022;2022-07-22T01:01:04;19.10;99.90
5779;DHT22;2916;49.798;10.022;2022-07-22T01:03:32;19.10;99.90
5779;DHT22;2916;49.798;10.022;2022-07-22T01:05:59;19.10;99.90
5779;DHT22;2916;49.798;10.022;2022-07-22T01:08:26;19.00;99.90
5779;DHT22;2916;49.798;10.022;2022-07-22T01:11:06;19.10;99.90
5779;DHT22;2916;49.798;10.022;2022-07-22T01:13:34;19.10;99.90
5779;DHT22;2916;49.798;10.022;2022-07-22T01:16:02;19.00;99.90
5779;DHT22;2916;49.798;10.022;2022-07-22T01:18:30;19.00;99.90
5779;DHT22;2916;49.798;10.022;2022-07-22T01:20:59;19.00;99.90
5779;DHT22;2916;49.798;10.022;2022-07-22T01:23:26;19.00;99.90
5779;DHT22;2916;49.798;10.022;2022-07-22T01:25:54;19.00;99.90
5779;DHT22;2916;49.798;10.022;2022-07-22T01:28:21;19.00;99.90
5779;DHT22;2916;49.798;10.022;2022-07-22T01:30:49;18.90;99.90
5779;DHT22;2916;49.798;10.022;2022-07-22T01:33:17;18.80;99.90
5779;DHT22;2916;49.798;10.022;2022-07-22T01:35:44;18.80;99.90
5779;DHT22;2916;49.798;10.022;2022-07-22T01:38:13;18.80;99.90
5779;DHT22;2916;49.798;10.022;2022-07-22T01:40:41;18.60;99.90
5779;DHT22;2916;49.798;10.022;2022-07-22T01:43:11;18.60;99.90
5779;DHT22;2916;49.798;10.022;2022-07-22T01:45:43;18.50;99.90
5779;DHT22;2916;49.798;10.022;2022-07-22T01:48:11;18.60;99.90
5779;DHT22;2916;49.798;10.022;2022-07-22T01:50:38;18.60;99.90
5779;DHT22;2916;49.798;10.022;2022-07-22T01:53:06;18.60;99.90
5779;DHT22;2916;49.798;10.022;2022-07-22T01:55:35;18.50;99.90
5779;DHT22;2916;49.798;10.022;2022-07-22T01:58:03;18.50;99.90
5779;DHT22;2916;49.798;10.022;2022-07-22T02:00:31;18.50;99.90
5779;DHT22;2916;49.798;10.022;2022-07-22T02:02:58;18.50;99.90
5779;DHT22;2916;49.798;10.022;2022-07-22T02:05:26;18.50;99.90
5779;DHT22;2916;49.798;10.022;2022-07-22T02:07:59;18.40;99.90
5779;DHT22;2916;49.798;10.022;2022-07-22T02:10:27;18.40;99.90
5779;DHT22;2916;49.798;10.022;2022-07-22T02:12:56;18.40;99.90
5779;DHT22;2916;49.798;10.022;2022-07-22T02:15:24;18.40;99.90
5779;DHT22;2916;49.798;10.022;2022-07-22T02:17:52;18.30;99.90
5779;DHT22;2916;49.798;10.022;2022-07-22T02:20:19;18.30;99.90
5779;DHT22;2916;49.798;10.022;2022-07-22T02:22:47;18.30;99.90
5779;DHT22;2916;49.798;10.022;2022-07-22T02:25:14;18.20;99.90
5779;DHT22;2916;49.798;10.022;2022-07-22T02:27:42;18.20;99.90
5779;DHT22;2916;49.798;10.022;2022-07-22T02:30:11;18.20;99.90
5779;DHT22;2916;49.798;10.022;2022-07-22T02:32:38;18.10;99.90
5779;DHT22;2916;49.798;10.022;2022-07-22T02:35:06;18.10;99.90
5779;DHT22;2916;49.798;10.022;2022-07-22T02:37:34;18.00;99.90
5779;DHT22;2916;49.798;10.022;2022-07-22T02:40:03;18.00;99.90
5779;DHT22;2916;49.798;10.022;2022-07-22T02:42:32;17.90;99.90
5779;DHT22;2916;49.798;10.022;2022-07-22T02:44:59;18.00;99.90
5779;DHT22;2916;49.798;10.022;2022-07-22T02:47:27;17.90;99.90
5779;DHT22;2916;49.798;10.022;2022-07-22T02:49:54;17.90;99.90
5779;DHT22;2916;49.798;10.022;2022-07-22T02:52:21;17.80;99.90
5779;DHT22;2916;49.798;10.022;2022-07-22T02:54:49;17.80;99.90
5779;DHT22;2916;49.798;10.022;2022-07-22T02:57:16;17.80;99.90
5779;DHT22;2916;49.798;10.022;2022-07-22T02:59:43;17.70;99.90
5779;DHT22;2916;49.798;10.022;2022-07-22T03:02:10;17.80;99.90
5779;DHT22;2916;49.798;10.022;2022-07-22T03:04:39;17.70;99.90
5779;DHT22;2916;49.798;10.022;2022-07-22T03:07:06;17.60;99.90
5779;DHT22;2916;49.798;10.022;2022-07-22T03:09:33;17.70;99.90
5779;DHT22;2916;49.798;10.022;2022-07-22T03:12:00;17.60;99.90
5779;DHT22;2916;49.798;10.022;2022-07-22T03:14:27;17.50;99.90
5779;DHT22;2916;49.798;10.022;2022-07-22T03:16:54;17.50;99.90
5779;DHT22;2916;49.798;10.022;2022-07-22T03:19:22;17.50;99.90
5779;DHT22;2916;49.798;10.022;2022-07-22T03:21:50;17.50;99.90
5779;DHT22;2916;49.798;10.022;2022-07-22T03:24:17;17.50;99.90
5779;DHT22;2916;49.798;10.022;2022-07-22T03:26:44;17.40;99.90
5779;DHT22;2916;49.798;10.022;2022-07-22T03:29:11;17.50;99.90
5779;DHT22;2916;49.798;10.022;2022-07-22T03:31:39;17.50;99.90
5779;DHT22;2916;49.798;10.022;2022-07-22T03:34:06;17.50;99.90
5779;DHT22;2916;49.798;10.022;2022-07-22T03:36:33;17.40;99.90
5779;DHT22;2916;49.798;10.022;2022-07-22T03:39:01;17.40;99.90
5779;DHT22;2916;49.798;10.022;2022-07-22T03:41:29;17.30;99.90
5779;DHT22;2916;49.798;10.022;2022-07-22T03:43:56;17.30;99.90
5779;DHT22;2916;49.798;10.022;2022-07-22T03:46:23;17.30;99.90
5779;DHT22;2916;49.798;10.022;2022-07-22T03:48:50;17.30;99.90
5779;DHT22;2916;49.798;10.022;2022-07-22T03:51:17;17.40;99.90
5779;DHT22;2916;49.798;10.022;2022-07-22T03:53:44;17.30;99.90
5779;DHT22;2916;49.798;10.022;2022-07-22T03:56:13;17.30;99.90
5779;DHT22;2916;49.798;10.022;2022-07-22T03:58:40;17.20;99.90
5779;DHT22;2916;49.798;10.022;2022-07-22T04:01:07;17.20;99.90
5779;DHT22;2916;49.798;10.022;2022-07-22T04:03:34;17.30;99.90
5779;DHT22;2916;49.798;10.022;2022-07-22T04:06:01;17.30;99.90
5779;DHT22;2916;49.798;10.022;2022-07-22T04:08:29;17.20;99.90
5779;DHT22;2916;49.798;10.022;2022-07-22T04:10:56;17.30;99.90
5779;DHT22;2916;49.798;10.022;2022-07-22T04:13:24;17.20;99.90
5779;DHT22;2916;49.798;10.022;2022-07-22T04:15:52;17.20;99.90
5779;DHT22;2916;49.798;10.022;2022-07-22T04:18:19;17.20;99.90
5779;DHT22;2916;49.798;10.022;2022-07-22T04:20:46;17.20;99.90
5779;DHT22;2916;49.798;10.022;2022-07-22T04:23:13;17.30;99.90
5779;DHT22;2916;49.798;10.022;2022-07-22T04:25:40;17.40;99.90
5779;DHT22;2916;49.798;10.022;2022-07-22T04:28:07;17.30;99.90
5779;DHT22;2916;49.798;10.022;2022-07-22T04:30:36;17.40;99.90
5779;DHT22;2916;49.798;10.022;2022-07-22T04:33:03;17.40;99.90
5779;DHT22;2916;49.798;10.022;2022-07-22T04:35:30;17.60;99.90
5779;DHT22;2916;49.798;10.022;2022-07-22T04:37:57;17.70;99.90
5779;DHT22;2916;49.798;10.022;2022-07-22T04:40:25;17.80;99.90
5779;DHT22;2916;49.798;10.022;2022-07-22T04:42:52;17.90;99.90
5779;DHT22;2916;49.798;10.022;2022-07-22T04:45:20;17.90;99.90
5779;DHT22;2916;49.798;10.022;2022-07-22T04:47:48;18.00;99.90
5779;DHT22;2916;49.798;10.022;2022-07-22T04:50:15;17.90;99.90
5779;DHT22;2916;49.798;10.022;2022-07-22T04:52:42;18.10;99.90
5779;DHT22;2916;49.798;10.022;2022-07-22T04:55:10;18.10;99.90
5779;DHT22;2916;49.798;10.022;2022-07-22T04:57:37;18.10;99.90
5779;DHT22;2916;49.798;10.022;2022-07-22T05:00:05;18.20;99.90
5779;DHT22;2916;49.798;10.022;2022-07-22T05:02:33;18.30;99.90
5779;DHT22;2916;49.798;10.022;2022-07-22T05:05:02;18.40;99.90
5779;DHT22;2916;49.798;10.022;2022-07-22T05:07:30;18.60;99.90
5779;DHT22;2916;49.798;10.022;2022-07-22T05:09:57;18.70;99.90
5779;DHT22;2916;49.798;10.022;2022-07-22T05:12:24;18.90;99.90
5779;DHT22;2916;49.798;10.022;2022-07-22T05:14:51;19.00;99.90
5779;DHT22;2916;49.798;10.022;2022-07-22T05:17:18;19.30;99.90
5779;DHT22;2916;49.798;10.022;2022-07-22T05:19:45;19.70;99.90
5779;DHT22;2916;49.798;10.022;2022-07-22T05:22:14;20.10;99.90
5779;DHT22;2916;49.798;10.022;2022-07-22T05:24:41;20.70;99.90
5779;DHT22;2916;49.798;10.022;2022-07-22T05:27:08;21.10;99.90
5779;DHT22;2916;49.798;10.022;2022-07-22T05:29:35;21.40;99.90
5779;DHT22;2916;49.798;10.022;2022-07-22T05:32:03;21.70;99.90
5779;DHT22;2916;49.798;10.022;2022-07-22T05:34:31;22.10;99.90
5779;DHT22;2916;49.798;10.022;2022-07-22T05:36:58;22.50;99.90
5779;DHT22;2916;49.798;10.022;2022-07-22T05:39:27;22.80;98.20
5779;DHT22;2916;49.798;10.022;2022-07-22T05:41:54;23.20;80.90
5779;DHT22;2916;49.798;10.022;2022-07-22T05:44:21;23.30;70.80
5779;DHT22;2916;49.798;10.022;2022-07-22T05:46:48;23.60;56.80
5779;DHT22;2916;49.798;10.022;2022-07-22T05:49:15;23.70;53.90
5779;DHT22;2916;49.798;10.022;2022-07-22T05:51:43;24.20;40.50
5779;DHT22;2916;49.798;10.022;2022-07-22T05:54:10;24.40;29.40
5779;DHT22;2916;49.798;10.022;2022-07-22T05:56:39;24.80;23.30
5779;DHT22;2916;49.798;10.022;2022-07-22T05:59:06;25.10;18.80
5779;DHT22;2916;49.798;10.022;2022-07-22T06:01:33;25.50;10.30
5779;DHT22;2916;49.798;10.022;2022-07-22T06:04:00;25.50;5.30
5779;DHT22;2916;49.798;10.022;2022-07-22T06:06:28;26.10;1.00
5779;DHT22;2916;49.798;10.022;2022-07-22T06:08:55;26.30;1.00
5779;DHT22;2916;49.798;10.022;2022-07-22T06:11:22;26.40;1.00
5779;DHT22;2916;49.798;10.022;2022-07-22T06:13:51;26.40;1.00
5779;DHT22;2916;49.798;10.022;2022-07-22T06:16:19;26.00;1.00
5779;DHT22;2916;49.798;10.022;2022-07-22T06:18:46;25.60;1.00
5779;DHT22;2916;49.798;10.022;2022-07-22T06:21:13;25.90;1.00
5779;DHT22;2916;49.798;10.022;2022-07-22T06:23:40;26.40;1.00
5779;DHT22;2916;49.798;10.022;2022-07-22T06:26:08;26.60;1.00
5779;DHT22;2916;49.798;10.022;2022-07-22T06:28:35;26.70;1.00
5779;DHT22;2916;49.798;10.022;2022-07-22T06:31:04;27.00;1.00
5779;DHT22;2916;49.798;10.022;2022-07-22T06:33:31;27.10;1.00
5779;DHT22;2916;49.798;10.022;2022-07-22T06:35:59;26.20;1.00
5779;DHT22;2916;49.798;10.022;2022-07-22T06:38:26;26.60;1.00
5779;DHT22;2916;49.798;10.022;2022-07-22T06:40:53;26.90;1.00
5779;DHT22;2916;49.798;10.022;2022-07-22T06:43:20;26.40;1.00
5779;DHT22;2916;49.798;10.022;2022-07-22T06:45:48;27.10;1.00
5779;DHT22;2916;49.798;10.022;2022-07-22T06:48:17;27.90;1.00
5779;DHT22;2916;49.798;10.022;2022-07-22T06:50:44;27.80;1.00
5779;DHT22;2916;49.798;10.022;2022-07-22T06:53:11;28.50;1.00
5779;DHT22;2916;49.798;10.022;2022-07-22T06:55:39;27.30;1.00
5779;DHT22;2916;49.798;10.022;2022-07-22T06:58:06;27.90;1.00
5779;DHT22;2916;49.798;10.022;2022-07-22T07:00:35;27.90;1.00
5779;DHT22;2916;49.798;10.022;2022-07-22T07:03:02;28.30;1.00
5779;DHT22;2916;49.798;10.022;2022-07-22T07:05:31;28.70;1.00
5779;DHT22;2916;49.798;10.022;2022-07-22T07:07:58;28.70;1.00
5779;DHT22;2916;49.798;10.022;2022-07-22T07:10:26;28.10;1.00
5779;DHT22;2916;49.798;10.022;2022-07-22T07:12:55;28.80;1.00
5779;DHT22;2916;49.798;10.022;2022-07-22T07:15:23;29.50;1.00
5779;DHT22;2916;49.798;10.022;2022-07-22T07:17:50;29.50;1.00
5779;DHT22;2916;49.798;10.022;2022-07-22T07:20:17;30.00;1.00
5779;DHT22;2916;49.798;10.022;2022-07-22T07:22:46;29.80;1.00
5779;DHT22;2916;49.798;10.022;2022-07-22T07:25:14;29.90;1.00
5779;DHT22;2916;49.798;10.022;2022-07-22T07:27:42;29.80;1.00
5779;DHT22;2916;49.798;10.022;2022-07-22T07:30:10;29.80;1.00
5779;DHT22;2916;49.798;10.022;2022-07-22T07:32:38;29.10;1.00
5779;DHT22;2916;49.798;10.022;2022-07-22T07:35:06;28.90;1.00
5779;DHT22;2916;49.798;10.022;2022-07-22T07:37:34;28.70;1.00
5779;DHT22;2916;49.798;10.022;2022-07-22T07:40:03;29.10;1.00
5779;DHT22;2916;49.798;10.022;2022-07-22T07:42:31;29.30;1.00
5779;DHT22;2916;49.798;10.022;2022-07-22T07:44:59;29.00;1.00
5779;DHT22;2916;49.798;10.022;2022-07-22T07:47:26;28.70;1.00
5779;DHT22;2916;49.798;10.022;2022-07-22T07:49:53;29.50;1.00
5779;DHT22;2916;49.798;10.022;2022-07-22T07:52:20;29.90;1.00
5779;DHT22;2916;49.798;10.022;2022-07-22T07:54:47;30.50;1.00
5779;DHT22;2916;49.798;10.022;2022-07-22T07:57:16;30.50;1.00
5779;DHT22;2916;49.798;10.022;2022-07-22T07:59:44;30.40;1.00
5779;DHT22;2916;49.798;10.022;2022-07-22T08:02:12;30.70;1.00
5779;DHT22;2916;49.798;10.022;2022-07-22T08:04:39;30.00;1.00
5779;DHT22;2916;49.798;10.022;2022-07-22T08:07:07;30.80;1.00
5779;DHT22;2916;49.798;10.022;2022-07-22T08:09:34;31.20;1.00
5779;DHT22;2916;49.798;10.022;2022-07-22T08:12:03;30.40;1.00
5779;DHT22;2916;49.798;10.022;2022-07-22T08:14:32;30.90;1.00
5779;DHT22;2916;49.798;10.022;2022-07-22T08:17:00;31.10;1.00
5779;DHT22;2916;49.798;10.022;2022-07-22T08:19:29;30.80;1.00
5779;DHT22;2916;49.798;10.022;2022-07-22T08:21:56;31.00;1.00
5779;DHT22;2916;49.798;10.022;2022-07-22T08:24:23;30.20;1.00
5779;DHT22;2916;49.798;10.022;2022-07-22T08:26:50;30.20;1.00
5779;DHT22;2916;49.798;10.022;2022-07-22T08:29:18;31.00;1.00
5779;DHT22;2916;49.798;10.022;2022-07-22T08:31:46;31.30;1.00
5779;DHT22;2916;49.798;10.022;2022-07-22T08:34:14;31.40;1.00
5779;DHT22;2916;49.798;10.022;2022-07-22T08:36:41;31.30;1.00
5779;DHT22;2916;49.798;10.022;2022-07-22T08:39:08;31.90;1.00
5779;DHT22;2916;49.798;10.022;2022-07-22T08:41:36;31.90;1.00
5779;DHT22;2916;49.798;10.022;2022-07-22T08:44:07;29.10;1.00
5779;DHT22;2916;49.798;10.022;2022-07-22T08:46:36;29.30;1.00
5779;DHT22;2916;49.798;10.022;2022-07-22T08:49:05;29.70;1.00
5779;DHT22;2916;49.798;10.022;2022-07-22T08:51:33;29.10;1.00
5779;DHT22;2916;49.798;10.022;2022-07-22T08:54:00;30.10;1.00
5779;DHT22;2916;49.798;10.022;2022-07-22T08:56:27;30.10;1.00
5779;DHT22;2916;49.798;10.022;2022-07-22T08:58:55;30.60;1.00
5779;DHT22;2916;49.798;10.022;2022-07-22T09:01:22;30.50;1.00
5779;DHT22;2916;49.798;10.022;2022-07-22T09:03:51;31.30;1.00
5779;DHT22;2916;49.798;10.022;2022-07-22T09:06:23;30.90;1.00
5779;DHT22;2916;49.798;10.022;2022-07-22T09:08:54;30.90;1.00
5779;DHT22;2916;49.798;10.022;2022-07-22T09:11:25;31.50;1.00
5779;DHT22;2916;49.798;10.022;2022-07-22T09:13:55;31.10;1.00
5779;DHT22;2916;49.798;10.022;2022-07-22T09:16:40;29.80;1.00
5779;DHT22;2916;49.798;10.022;2022-07-22T09:19:09;29.40;1.00
5779;DHT22;2916;49.798;10.022;2022-07-22T09:21:40;30.10;1.00
5779;DHT22;2916;49.798;10.022;2022-07-22T09:24:08;30.60;1.00
5779;DHT22;2916;49.798;10.022;2022-07-22T09:26:54;30.70;1.00
5779;DHT22;2916;49.798;10.022;2022-07-22T09:29:22;31.60;1.00
5779;DHT22;2916;49.798;10.022;2022-07-22T09:31:51;31.30;1.00
5779;DHT22;2916;49.798;10.022;2022-07-22T09:34:26;30.80;1.00
5779;DHT22;2916;49.798;10.022;2022-07-22T09:36:58;31.10;1.00
5779;DHT22;2916;49.798;10.022;2022-07-22T09:39:27;31.70;1.00
5779;DHT22;2916;49.798;10.022;2022-07-22T09:41:57;30.40;1.00
5779;DHT22;2916;49.798;10.022;2022-07-22T09:44:25;31.00;1.00
5779;DHT22;2916;49.798;10.022;2022-07-22T09:46:52;30.80;1.00
5779;DHT22;2916;49.798;10.022;2022-07-22T09:49:31;30.40;1.00
5779;DHT22;2916;49.798;10.022;2022-07-22T09:52:01;31.00;1.00
5779;DHT22;2916;49.798;10.022;2022-07-22T09:54:30;31.30;1.00
5779;DHT22;2916;49.798;10.022;2022-07-22T09:56:58;30.70;1.00
5779;DHT22;2916;49.798;10.022;2022-07-22T09:59:25;31.60;1.00
5779;DHT22;2916;49.798;10.022;2022-07-22T10:01:55;31.10;1.00
5779;DHT22;2916;49.798;10.022;2022-07-22T10:04:28;30.50;1.00
5779;DHT22;2916;49.798;10.022;2022-07-22T10:07:02;30.80;1.00
5779;DHT22;2916;49.798;10.022;2022-07-22T10:09:31;31.00;1.00
5779;DHT22;2916;49.798;10.022;2022-07-22T10:11:59;31.00;1.00
5779;DHT22;2916;49.798;10.022;2022-07-22T10:14:28;30.40;1.00
5779;DHT22;2916;49.798;10.022;2022-07-22T10:16:57;30.30;1.00
5779;DHT22;2916;49.798;10.022;2022-07-22T10:19:25;30.90;1.00
5779;DHT22;2916;49.798;10.022;2022-07-22T10:21:53;30.60;1.00
5779;DHT22;2916;49.798;10.022;2022-07-22T10:24:21;31.40;1.00
5779;DHT22;2916;49.798;10.022;2022-07-22T10:26:51;31.50;1.00
5779;DHT22;2916;49.798;10.022;2022-07-22T10:29:30;32.40;1.00
5779;DHT22;2916;49.798;10.022;2022-07-22T10:32:23;32.90;1.00
5779;DHT22;2916;49.798;10.022;2022-07-22T10:35:22;32.30;1.00
5779;DHT22;2916;49.798;10.022;2022-07-22T10:37:52;31.90;1.00
5779;DHT22;2916;49.798;10.022;2022-07-22T10:40:24;31.60;1.00
5779;DHT22;2916;49.798;10.022;2022-07-22T10:43:04;31.50;1.00
5779;DHT22;2916;49.798;10.022;2022-07-22T10:45:40;31.50;1.00
5779;DHT22;2916;49.798;10.022;2022-07-22T10:48:12;31.90;1.00
5779;DHT22;2916;49.798;10.022;2022-07-22T10:50:52;31.60;1.00
5779;DHT22;2916;49.798;10.022;2022-07-22T10:53:24;31.00;1.00
5779;DHT22;2916;49.798;10.022;2022-07-22T10:56:17;31.80;1.00
5779;DHT22;2916;49.798;10.022;2022-07-22T11:01:36;31.70;1.00
5779;DHT22;2916;49.798;10.022;2022-07-22T11:04:13;32.20;1.00
5779;DHT22;2916;49.798;10.022;2022-07-22T11:06:42;32.80;1.00
5779;DHT22;2916;49.798;10.022;2022-07-22T11:09:13;33.30;1.00
5779;DHT22;2916;49.798;10.022;2022-07-22T11:11:48;33.80;1.00
5779;DHT22;2916;49.798;10.022;2022-07-22T11:14:21;33.20;1.00
5779;DHT22;2916;49.798;10.022;2022-07-22T11:16:58;33.10;1.00
5779;DHT22;2916;49.798;10.022;2022-07-22T11:19:31;32.10;1.00
5779;DHT22;2916;49.798;10.022;2022-07-22T11:22:01;33.20;1.00
5779;DHT22;2916;49.798;10.022;2022-07-22T11:24:31;33.20;1.00
5779;DHT22;2916;49.798;10.022;2022-07-22T11:27:00;33.30;1.00
5779;DHT22;2916;49.798;10.022;2022-07-22T11:29:30;32.90;1.00
5779;DHT22;2916;49.798;10.022;2022-07-22T11:32:01;32.60;1.00
5779;DHT22;2916;49.798;10.022;2022-07-22T11:34:30;32.90;1.00
5779;DHT22;2916;49.798;10.022;2022-07-22T11:36:58;33.60;1.00
5779;DHT22;2916;49.798;10.022;2022-07-22T11:39:26;32.80;1.00
5779;DHT22;2916;49.798;10.022;2022-07-22T11:41:57;33.10;1.00
5779;DHT22;2916;49.798;10.022;2022-07-22T11:44:29;33.40;1.00
5779;DHT22;2916;49.798;10.022;2022-07-22T11:46:59;33.40;1.00
5779;DHT22;2916;49.798;10.022;2022-07-22T11:49:28;33.10;1.00
5779;DHT22;2916;49.798;10.022;2022-07-22T11:51:59;33.50;1.00
5779;DHT22;2916;49.798;10.022;2022-07-22T11:54:26;33.80;1.00
5779;DHT22;2916;49.798;10.022;2022-07-22T11:56:54;32.80;1.00
5779;DHT22;2916;49.798;10.022;2022-07-22T11:59:22;32.30;1.00
5779;DHT22;2916;49.798;10.022;2022-07-22T12:01:50;32.70;1.00
5779;DHT22;2916;49.798;10.022;2022-07-22T12:04:20;32.90;1.00
5779;DHT22;2916;49.798;10.022;2022-07-22T12:06:49;32.90;1.00
5779;DHT22;2916;49.798;10.022;2022-07-22T12:09:21;32.90;1.00
5779;DHT22;2916;49.798;10.022;2022-07-22T12:11:52;32.90;1.00
5779;DHT22;2916;49.798;10.022;2022-07-22T12:14:22;31.30;1.00
5779;DHT22;2916;49.798;10.022;2022-07-22T12:16:56;32.00;1.00
5779;DHT22;2916;49.798;10.022;2022-07-22T12:19:26;32.40;1.00
5779;DHT22;2916;49.798;10.022;2022-07-22T12:21:57;32.40;1.00
5779;DHT22;2916;49.798;10.022;2022-07-22T12:24:26;32.70;1.00
5779;DHT22;2916;49.798;10.022;2022-07-22T12:26:59;32.80;1.00
5779;DHT22;2916;49.798;10.022;2022-07-22T12:29:29;32.90;1.00
5779;DHT22;2916;49.798;10.022;2022-07-22T12:32:00;33.00;1.00
5779;DHT22;2916;49.798;10.022;2022-07-22T12:34:35;32.80;1.00
5779;DHT22;2916;49.798;10.022;2022-07-22T12:37:15;33.30;1.00
5779;DHT22;2916;49.798;10.022;2022-07-22T12:39:58;33.50;1.00
5779;DHT22;2916;49.798;10.022;2022-07-22T12:42:30;33.90;1.00
5779;DHT22;2916;49.798;10.022;2022-07-22T12:45:04;33.30;1.00
5779;DHT22;2916;49.798;10.022;2022-07-22T12:47:49;33.20;1.00
5779;DHT22;2916;49.798;10.022;2022-07-22T12:50:23;33.00;1.00
5779;DHT22;2916;49.798;10.022;2022-07-22T12:52:53;33.20;1.00
5779;DHT22;2916;49.798;10.022;2022-07-22T12:55:22;32.40;1.00
5779;DHT22;2916;49.798;10.022;2022-07-22T12:57:50;32.60;1.00
5779;DHT22;2916;49.798;10.022;2022-07-22T13:00:19;32.90;1.00
5779;DHT22;2916;49.798;10.022;2022-07-22T13:02:48;33.10;1.00
5779;DHT22;2916;49.798;10.022;2022-07-22T13:05:16;32.20;1.00
5779;DHT22;2916;49.798;10.022;2022-07-22T13:07:44;33.00;1.00
5779;DHT22;2916;49.798;10.022;2022-07-22T13:10:13;32.90;1.00
5779;DHT22;2916;49.798;10.022;2022-07-22T13:12:42;33.00;1.00
5779;DHT22;2916;49.798;10.022;2022-07-22T13:15:10;33.00;1.00
5779;DHT22;2916;49.798;10.022;2022-07-22T13:17:37;33.20;1.00
5779;DHT22;2916;49.798;10.022;2022-07-22T13:20:09;33.40;1.00
5779;DHT22;2916;49.798;10.022;2022-07-22T13:22:38;33.20;1.00
5779;DHT22;2916;49.798;10.022;2022-07-22T13:25:06;32.90;1.00
5779;DHT22;2916;49.798;10.022;2022-07-22T13:27:34;33.00;1.00
5779;DHT22;2916;49.798;10.022;2022-07-22T13:30:01;32.70;1.00
5779;DHT22;2916;49.798;10.022;2022-07-22T13:32:30;33.00;1.00
5779;DHT22;2916;49.798;10.022;2022-07-22T13:34:57;32.20;1.00
5779;DHT22;2916;49.798;10.022;2022-07-22T13:37:26;32.30;1.00
5779;DHT22;2916;49.798;10.022;2022-07-22T13:39:54;32.70;1.00
5779;DHT22;2916;49.798;10.022;2022-07-22T13:42:21;32.90;1.00
5779;DHT22;2916;49.798;10.022;2022-07-22T13:44:49;33.10;1.00
5779;DHT22;2916;49.798;10.022;2022-07-22T13:47:16;33.10;1.00
5779;DHT22;2916;49.798;10.022;2022-07-22T13:49:44;32.80;1.00
5779;DHT22;2916;49.798;10.022;2022-07-22T13:52:12;32.80;1.00
5779;DHT22;2916;49.798;10.022;2022-07-22T13:54:41;32.30;1.00
5779;DHT22;2916;49.798;10.022;2022-07-22T13:57:09;33.00;1.00
5779;DHT22;2916;49.798;10.022;2022-07-22T13:59:37;33.10;1.00
5779;DHT22;2916;49.798;10.022;2022-07-22T14:02:05;33.20;1.00
5779;DHT22;2916;49.798;10.022;2022-07-22T14:04:32;33.40;1.00
5779;DHT22;2916;49.798;10.022;2022-07-22T14:07:00;33.60;1.00
5779;DHT22;2916;49.798;10.022;2022-07-22T14:09:27;33.60;1.00
5779;DHT22;2916;49.798;10.022;2022-07-22T14:11:55;33.50;1.00
5779;DHT22;2916;49.798;10.022;2022-07-22T14:14:24;33.20;1.00
5779;DHT22;2916;49.798;10.022;2022-07-22T14:16:51;33.30;1.00
5779;DHT22;2916;49.798;10.022;2022-07-22T14:19:18;33.20;1.00
5779;DHT22;2916;49.798;10.022;2022-07-22T14:21:46;33.00;1.00
5779;DHT22;2916;49.798;10.022;2022-07-22T14:24:14;33.20;1.00
5779;DHT22;2916;49.798;10.022;2022-07-22T14:26:41;33.30;1.00
5779;DHT22;2916;49.798;10.022;2022-07-22T14:29:10;32.90;1.00
5779;DHT22;2916;49.798;10.022;2022-07-22T14:31:37;32.90;1.00
5779;DHT22;2916;49.798;10.022;2022-07-22T14:34:04;33.10;1.00
5779;DHT22;2916;49.798;10.022;2022-07-22T14:36:32;32.60;1.00
5779;DHT22;2916;49.798;10.022;2022-07-22T14:38:59;33.00;1.00
5779;DHT22;2916;49.798;10.022;2022-07-22T14:41:26;33.10;1.00
5779;DHT22;2916;49.798;10.022;2022-07-22T14:43:53;33.10;1.00
5779;DHT22;2916;49.798;10.022;2022-07-22T14:46:22;32.90;1.00
5779;DHT22;2916;49.798;10.022;2022-07-22T14:48:49;32.80;1.00
5779;DHT22;2916;49.798;10.022;2022-07-22T14:51:18;33.00;1.00
5779;DHT22;2916;49.798;10.022;2022-07-22T14:53:46;33.10;1.00
5779;DHT22;2916;49.798;10.022;2022-07-22T14:56:14;33.60;1.00
5779;DHT22;2916;49.798;10.022;2022-07-22T14:58:41;33.50;1.00
5779;DHT22;2916;49.798;10.022;2022-07-22T15:01:08;33.10;1.00
5779;DHT22;2916;49.798;10.022;2022-07-22T15:03:37;32.60;1.00
5779;DHT22;2916;49.798;10.022;2022-07-22T15:06:04;33.00;1.00
5779;DHT22;2916;49.798;10.022;2022-07-22T15:08:31;32.90;1.00
5779;DHT22;2916;49.798;10.022;2022-07-22T15:10:59;31.90;1.00
5779;DHT22;2916;49.798;10.022;2022-07-22T15:13:26;32.00;1.00
5779;DHT22;2916;49.798;10.022;2022-07-22T15:15:54;31.80;1.00
5779;DHT22;2916;49.798;10.022;2022-07-22T15:18:21;31.50;1.00
5779;DHT22;2916;49.798;10.022;2022-07-22T15:20:50;32.00;1.00
5779;DHT22;2916;49.798;10.022;2022-07-22T15:23:19;32.50;1.00
5779;DHT22;2916;49.798;10.022;2022-07-22T15:25:47;32.90;1.00
5779;DHT22;2916;49.798;10.022;2022-07-22T15:28:14;32.60;1.00
5779;DHT22;2916;49.798;10.022;2022-07-22T15:30:41;32.60;1.00
5779;DHT22;2916;49.798;10.022;2022-07-22T15:33:08;32.30;1.00
5779;DHT22;2916;49.798;10.022;2022-07-22T15:35:35;32.40;1.00
5779;DHT22;2916;49.798;10.022;2022-07-22T15:38:04;32.40;1.00
5779;DHT22;2916;49.798;10.022;2022-07-22T15:40:32;32.60;1.00
5779;DHT22;2916;49.798;10.022;2022-07-22T15:43:00;32.50;1.00
5779;DHT22;2916;49.798;10.022;2022-07-22T15:45:28;32.40;1.00
5779;DHT22;2916;49.798;10.022;2022-07-22T15:47:55;32.10;1.00
5779;DHT22;2916;49.798;10.022;2022-07-22T15:50:22;32.30;1.00
5779;DHT22;2916;49.798;10.022;2022-07-22T15:52:50;32.00;1.00
5779;DHT22;2916;49.798;10.022;2022-07-22T15:55:18;32.10;1.00
5779;DHT22;2916;49.798;10.022;2022-07-22T15:57:46;32.00;1.00
5779;DHT22;2916;49.798;10.022;2022-07-22T16:00:31;31.70;1.00
5779;DHT22;2916;49.798;10.022;2022-07-22T16:02:59;32.40;1.00
5779;DHT22;2916;49.798;10.022;2022-07-22T16:05:27;32.30;1.00
5779;DHT22;2916;49.798;10.022;2022-07-22T16:07:54;32.50;1.00